sensor_id;sensor_type;location;lat;lon;timestamp;temperature;humidity
285;DHT22;127;48.770;9.212;2022-09-02T00:01:23;13.20;99.90
285;DHT22;127;48.770;9.212;2022-09-02T00:03:55;13.10;99.90
285;DHT22;127;48.770;9.212;2022-09-02T00:06:28;13.10;99.90
285;DHT22;127;48.770;9.212;2022-09-02T00:08:58;13.10;99.90
285;DHT22;127;48.770;9.212;2022-09-02T00:11:30;13.10;99.90
285;DHT22;127;48.770;9.212;2022-09-02T00:14:01;13.10;99.90
285;DHT22;127;48.770;9.212;2022-09-02T00:16:30;13.00;99.90
285;DHT22;127;48.770;9.212;2022-09-02T00:19:00;13.00;99.90
285;DHT22;127;48.770;9.212;2022-09-02T00:21:32;13.00;99.90
285;DHT22;127;48.770;9.212;2022-09-02T00:24:03;12.90;99.90
285;DHT22;127;48.770;9.212;2022-09-02T00:26:33;12.90;99.90
285;DHT22;127;48.770;9.212;2022-09-02T00:29:02;12.90;99.90
285;DHT22;127;48.770;9.212;2022-09-02T00:31:31;12.90;99.90
285;DHT22;127;48.770;9.212;2022-09-02T00:34:01;12.90;99.90
285;DHT22;127;48.770;9.212;2022-09-02T00:36:33;12.90;99.90
285;DHT22;127;48.770;9.212;2022-09-02T00:39:03;12.80;99.90
285;DHT22;127;48.770;9.212;2022-09-02T00:41:34;12.80;99.90
285;DHT22;127;48.770;9.212;2022-09-02T00:44:06;12.80;99.90
285;DHT22;127;48.770;9.212;2022-09-02T00:46:35;12.80;99.90
285;DHT22;127;48.770;9.212;2022-09-02T00:49:07;12.70;99.90
285;DHT22;127;48.770;9.212;2022-09-02T00:51:43;12.70;99.90
285;DHT22;127;48.770;9.212;2022-09-02T00:54:14;12.70;99.90
285;DHT22;127;48.770;9.212;2022-09-02T00:56:46;12.70;99.90
285;DHT22;127;48.770;9.212;2022-09-02T00:59:19;12.70;99.90
285;DHT22;127;48.770;9.212;2022-09-02T01:01:49;12.70;99.90
285;DHT22;127;48.770;9.212;2022-09-02T01:04:18;12.60;99.90
285;DHT22;127;48.770;9.212;2022-09-02T01:06:49;12.60;99.90
285;DHT22;127;48.770;9.212;2022-09-02T01:09:18;12.60;99.90
285;DHT22;127;48.770;9.212;2022-09-02T01:11:49;12.60;99.90
285;DHT22;127;48.770;9.212;2022-09-02T01:14:18;12.50;99.90
285;DHT22;127;48.770;9.212;2022-09-02T01:16:50;12.50;99.90
285;DHT22;127;48.770;9.212;2022-09-02T01:19:22;12.40;99.90
285;DHT22;127;48.770;9.212;2022-09-02T01:21:56;12.40;99.90
285;DHT22;127;48.770;9.212;2022-09-02T01:24:27;12.40;99.90
285;DHT22;127;48.770;9.212;2022-09-02T01:26:58;12.40;99.90
285;DHT22;127;48.770;9.212;2022-09-02T01:29:28;12.30;99.90
285;DHT22;127;48.770;9.212;2022-09-02T01:31:56;12.30;99.90
285;DHT22;127;48.770;9.212;2022-09-02T01:34:25;12.30;99.90
285;DHT22;127;48.770;9.212;2022-09-02T01:36:57;12.30;99.90
285;DHT22;127;48.770;9.212;2022-09-02T01:39:26;12.20;99.90
285;DHT22;127;48.770;9.212;2022-09-02T01:41:54;12.20;99.90
285;DHT22;127;48.770;9.212;2022-09-02T01:44:23;12.10;99.90
285;DHT22;127;48.770;9.212;2022-09-02T01:46:52;12.10;99.90
285;DHT22;127;48.770;9.212;2022-09-02T01:49:21;12.10;99.90
285;DHT22;127;48.770;9.212;2022-09-02T01:51:53;12.10;99.90
285;DHT22;127;48.770;9.212;2022-09-02T01:54:24;12.10;99.90
285;DHT22;127;48.770;9.212;2022-09-02T01:56:53;12.10;99.90
285;DHT22;127;48.770;9.212;2022-09-02T01:59:22;12.00;99.90
285;DHT22;127;48.770;9.212;2022-09-02T02:01:50;12.00;99.90
285;DHT22;127;48.770;9.212;2022-09-02T02:04:19;11.90;99.90
285;DHT22;127;48.770;9.212;2022-09-02T02:06:49;11.90;99.90
285;DHT22;127;48.770;9.212;2022-09-02T02:09:19;11.90;99.90
285;DHT22;127;48.770;9.212;2022-09-02T02:11:50;11.90;99.90
285;DHT22;127;48.770;9.212;2022-09-02T02:14:19;11.90;99.90
285;DHT22;127;48.770;9.212;2022-09-02T02:16:48;11.90;99.90
285;DHT22;127;48.770;9.212;2022-09-02T02:19:17;11.80;99.90
285;DHT22;127;48.770;9.212;2022-09-02T02:21:46;11.80;99.90
285;DHT22;127;48.770;9.212;2022-09-02T02:24:15;11.80;99.90
285;DHT22;127;48.770;9.212;2022-09-02T02:26:44;11.80;99.90
285;DHT22;127;48.770;9.212;2022-09-02T02:29:15;11.80;99.90
285;DHT22;127;48.770;9.212;2022-09-02T02:31:44;11.80;99.90
285;DHT22;127;48.770;9.212;2022-09-02T02:34:13;11.70;99.90
285;DHT22;127;48.770;9.212;2022-09-02T02:36:42;11.70;99.90
285;DHT22;127;48.770;9.212;2022-09-02T02:39:12;11.70;99.90
285;DHT22;127;48.770;9.212;2022-09-02T02:41:41;11.70;99.90
285;DHT22;127;48.770;9.212;2022-09-02T02:44:11;11.70;99.90
285;DHT22;127;48.770;9.212;2022-09-02T02:46:43;11.70;99.90
285;DHT22;127;48.770;9.212;2022-09-02T02:49:12;11.60;99.90
285;DHT22;127;48.770;9.212;2022-09-02T02:51:41;11.60;99.90
285;DHT22;127;48.770;9.212;2022-09-02T02:54:10;11.60;99.90
285;DHT22;127;48.770;9.212;2022-09-02T02:56:39;11.60;99.90
285;DHT22;127;48.770;9.212;2022-09-02T02:59:08;11.60;99.90
285;DHT22;127;48.770;9.212;2022-09-02T03:01:37;11.60;99.90
285;DHT22;127;48.770;9.212;2022-09-02T03:04:09;11.60;99.90
285;DHT22;127;48.770;9.212;2022-09-02T03:06:38;11.50;99.90
285;DHT22;127;48.770;9.212;2022-09-02T03:09:06;11.50;99.90
285;DHT22;127;48.770;9.212;2022-09-02T03:11:35;11.50;99.90
285;DHT22;127;48.770;9.212;2022-09-02T03:14:04;11.50;99.90
285;DHT22;127;48.770;9.212;2022-09-02T03:16:33;11.40;99.90
285;DHT22;127;48.770;9.212;2022-09-02T03:19:03;11.40;99.90
285;DHT22;127;48.770;9.212;2022-09-02T03:21:34;11.40;99.90
285;DHT22;127;48.770;9.212;2022-09-02T03:24:03;11.40;99.90
285;DHT22;127;48.770;9.212;2022-09-02T03:26:32;11.40;99.90
285;DHT22;127;48.770;9.212;2022-09-02T03:29:00;11.30;99.90
285;DHT22;127;48.770;9.212;2022-09-02T03:31:29;11.30;99.90
285;DHT22;127;48.770;9.212;2022-09-02T03:33:58;11.30;99.90
285;DHT22;127;48.770;9.212;2022-09-02T03:36:29;11.30;99.90
285;DHT22;127;48.770;9.212;2022-09-02T03:39:01;11.30;99.90
285;DHT22;127;48.770;9.212;2022-09-02T03:41:31;11.30;99.90
285;DHT22;127;48.770;9.212;2022-09-02T03:44:00;11.30;99.90
285;DHT22;127;48.770;9.212;2022-09-02T03:46:29;11.30;99.90
285;DHT22;127;48.770;9.212;2022-09-02T03:48:57;11.30;99.90
285;DHT22;127;48.770;9.212;2022-09-02T03:51:27;11.20;99.90
285;DHT22;127;48.770;9.212;2022-09-02T03:53:56;11.30;99.90
285;DHT22;127;48.770;9.212;2022-09-02T03:56:29;11.20;99.90
285;DHT22;127;48.770;9.212;2022-09-02T03:58:59;11.20;99.90
285;DHT22;127;48.770;9.212;2022-09-02T04:01:28;11.20;99.90
285;DHT22;127;48.770;9.212;2022-09-02T04:03:57;11.20;99.90
285;DHT22;127;48.770;9.212;2022-09-02T04:06:26;11.20;99.90
285;DHT22;127;48.770;9.212;2022-09-02T04:08:55;11.20;99.90
285;DHT22;127;48.770;9.212;2022-09-02T04:11:24;11.10;99.90
285;DHT22;127;48.770;9.212;2022-09-02T04:13:55;11.10;99.90
285;DHT22;127;48.770;9.212;2022-09-02T04:16:25;11.10;99.90
285;DHT22;127;48.770;9.212;2022-09-02T04:18:55;11.10;99.90
285;DHT22;127;48.770;9.212;2022-09-02T04:21:25;11.10;99.90
285;DHT22;127;48.770;9.212;2022-09-02T04:23:55;11.10;99.90
285;DHT22;127;48.770;9.212;2022-09-02T04:26:23;11.10;99.90
285;DHT22;127;48.770;9.212;2022-09-02T04:28:55;11.10;99.90
285;DHT22;127;48.770;9.212;2022-09-02T04:31:25;11.10;99.90
285;DHT22;127;48.770;9.212;2022-09-02T04:33:57;11.10;99.90
285;DHT22;127;48.770;9.212;2022-09-02T04:36:26;11.10;99.90
285;DHT22;127;48.770;9.212;2022-09-02T04:38:56;11.10;99.90
285;DHT22;127;48.770;9.212;2022-09-02T04:41:27;11.10;99.90
285;DHT22;127;48.770;9.212;2022-09-02T04:43:59;11.10;99.90
285;DHT22;127;48.770;9.212;2022-09-02T04:46:28;11.00;99.90
285;DHT22;127;48.770;9.212;2022-09-02T04:48:57;11.10;99.90
285;DHT22;127;48.770;9.212;2022-09-02T04:51:26;11.00;99.90
285;DHT22;127;48.770;9.212;2022-09-02T04:53:56;11.00;99.90
285;DHT22;127;48.770;9.212;2022-09-02T04:56:28;11.10;99.90
285;DHT22;127;48.770;9.212;2022-09-02T04:59:00;11.10;99.90
285;DHT22;127;48.770;9.212;2022-09-02T05:01:31;11.10;99.90
285;DHT22;127;48.770;9.212;2022-09-02T05:04:03;11.10;99.90
285;DHT22;127;48.770;9.212;2022-09-02T05:06:35;11.20;99.90
285;DHT22;127;48.770;9.212;2022-09-02T05:09:05;11.20;99.90
285;DHT22;127;48.770;9.212;2022-09-02T05:11:34;11.20;99.90
285;DHT22;127;48.770;9.212;2022-09-02T05:14:06;11.20;99.90
285;DHT22;127;48.770;9.212;2022-09-02T05:16:38;11.30;99.90
285;DHT22;127;48.770;9.212;2022-09-02T05:19:08;11.30;99.90
285;DHT22;127;48.770;9.212;2022-09-02T05:21:39;11.30;99.90
285;DHT22;127;48.770;9.212;2022-09-02T05:24:08;11.30;99.90
285;DHT22;127;48.770;9.212;2022-09-02T05:26:38;11.30;99.90
285;DHT22;127;48.770;9.212;2022-09-02T05:29:12;11.40;99.90
285;DHT22;127;48.770;9.212;2022-09-02T05:31:43;11.40;99.90
285;DHT22;127;48.770;9.212;2022-09-02T05:34:13;11.50;99.90
285;DHT22;127;48.770;9.212;2022-09-02T05:36:42;11.50;99.90
285;DHT22;127;48.770;9.212;2022-09-02T05:39:11;11.50;99.90
285;DHT22;127;48.770;9.212;2022-09-02T05:41:40;11.60;99.90
285;DHT22;127;48.770;9.212;2022-09-02T05:44:12;11.60;99.90
285;DHT22;127;48.770;9.212;2022-09-02T05:46:40;11.60;99.90
285;DHT22;127;48.770;9.212;2022-09-02T05:49:09;11.70;99.90
285;DHT22;127;48.770;9.212;2022-09-02T05:51:44;11.80;99.90
285;DHT22;127;48.770;9.212;2022-09-02T05:54:15;11.90;99.90
285;DHT22;127;48.770;9.212;2022-09-02T05:56:46;12.00;99.90
285;DHT22;127;48.770;9.212;2022-09-02T05:59:18;12.10;99.90
285;DHT22;127;48.770;9.212;2022-09-02T06:01:48;12.20;99.90
285;DHT22;127;48.770;9.212;2022-09-02T06:04:17;12.20;99.90
285;DHT22;127;48.770;9.212;2022-09-02T06:06:46;12.20;99.90
285;DHT22;127;48.770;9.212;2022-09-02T06:09:18;12.30;99.90
285;DHT22;127;48.770;9.212;2022-09-02T06:11:48;12.30;99.90
285;DHT22;127;48.770;9.212;2022-09-02T06:14:21;12.40;99.90
285;DHT22;127;48.770;9.212;2022-09-02T06:16:51;12.40;99.90
285;DHT22;127;48.770;9.212;2022-09-02T06:19:20;12.50;99.90
285;DHT22;127;48.770;9.212;2022-09-02T06:21:50;12.50;99.90
285;DHT22;127;48.770;9.212;2022-09-02T06:24:19;12.50;99.90
285;DHT22;127;48.770;9.212;2022-09-02T06:26:48;12.60;99.90
285;DHT22;127;48.770;9.212;2022-09-02T06:29:21;12.60;99.90
285;DHT22;127;48.770;9.212;2022-09-02T06:31:51;12.70;99.90
285;DHT22;127;48.770;9.212;2022-09-02T06:34:22;12.70;99.90
285;DHT22;127;48.770;9.212;2022-09-02T06:36:52;12.80;99.90
285;DHT22;127;48.770;9.212;2022-09-02T06:39:22;12.90;99.90
285;DHT22;127;48.770;9.212;2022-09-02T06:41:51;13.00;99.90
285;DHT22;127;48.770;9.212;2022-09-02T06:44:23;13.10;99.90
285;DHT22;127;48.770;9.212;2022-09-02T06:46:54;13.20;99.90
285;DHT22;127;48.770;9.212;2022-09-02T06:49:25;13.20;99.90
285;DHT22;127;48.770;9.212;2022-09-02T06:51:55;13.40;99.90
285;DHT22;127;48.770;9.212;2022-09-02T06:54:24;13.50;99.90
285;DHT22;127;48.770;9.212;2022-09-02T06:56:53;13.60;99.90
285;DHT22;127;48.770;9.212;2022-09-02T06:59:25;13.80;99.90
285;DHT22;127;48.770;9.212;2022-09-02T07:01:54;14.00;99.90
285;DHT22;127;48.770;9.212;2022-09-02T07:04:22;14.10;99.90
285;DHT22;127;48.770;9.212;2022-09-02T07:07:05;14.20;99.90
285;DHT22;127;48.770;9.212;2022-09-02T07:09:36;14.30;99.90
285;DHT22;127;48.770;9.212;2022-09-02T07:12:06;14.40;99.90
285;DHT22;127;48.770;9.212;2022-09-02T07:14:39;14.60;99.90
285;DHT22;127;48.770;9.212;2022-09-02T07:17:10;14.70;99.90
285;DHT22;127;48.770;9.212;2022-09-02T07:19:42;14.80;99.90
285;DHT22;127;48.770;9.212;2022-09-02T07:22:11;14.80;99.90
285;DHT22;127;48.770;9.212;2022-09-02T07:24:40;15.00;99.90
285;DHT22;127;48.770;9.212;2022-09-02T07:27:08;15.20;99.90
285;DHT22;127;48.770;9.212;2022-09-02T07:29:40;15.50;99.90
285;DHT22;127;48.770;9.212;2022-09-02T07:32:09;15.70;99.90
285;DHT22;127;48.770;9.212;2022-09-02T07:34:37;15.80;99.90
285;DHT22;127;48.770;9.212;2022-09-02T07:37:06;16.00;99.90
285;DHT22;127;48.770;9.212;2022-09-02T07:39:35;16.20;99.90
285;DHT22;127;48.770;9.212;2022-09-02T07:42:05;16.30;99.90
285;DHT22;127;48.770;9.212;2022-09-02T07:44:33;16.50;99.90
285;DHT22;127;48.770;9.212;2022-09-02T07:47:05;16.70;99.90
285;DHT22;127;48.770;9.212;2022-09-02T07:49:34;17.00;99.90
285;DHT22;127;48.770;9.212;2022-09-02T07:52:03;17.20;99.90
285;DHT22;127;48.770;9.212;2022-09-02T07:54:33;17.60;99.90
285;DHT22;127;48.770;9.212;2022-09-02T07:57:02;18.30;99.90
285;DHT22;127;48.770;9.212;2022-09-02T07:59:31;19.20;99.90
285;DHT22;127;48.770;9.212;2022-09-02T08:02:00;20.10;99.90
285;DHT22;127;48.770;9.212;2022-09-02T08:04:31;21.00;99.90
285;DHT22;127;48.770;9.212;2022-09-02T08:07:00;22.30;99.90
285;DHT22;127;48.770;9.212;2022-09-02T08:09:29;23.40;99.90
285;DHT22;127;48.770;9.212;2022-09-02T08:11:57;23.90;99.90
285;DHT22;127;48.770;9.212;2022-09-02T08:14:26;24.20;99.90
285;DHT22;127;48.770;9.212;2022-09-02T08:16:56;25.10;99.90
285;DHT22;127;48.770;9.212;2022-09-02T08:19:25;26.10;99.90
285;DHT22;127;48.770;9.212;2022-09-02T08:22:01;26.00;99.90
285;DHT22;127;48.770;9.212;2022-09-02T08:24:30;26.30;99.90
285;DHT22;127;48.770;9.212;2022-09-02T08:27:00;26.70;99.90
285;DHT22;127;48.770;9.212;2022-09-02T08:29:28;26.70;99.90
285;DHT22;127;48.770;9.212;2022-09-02T08:31:57;27.50;99.90
285;DHT22;127;48.770;9.212;2022-09-02T08:34:26;27.90;99.90
285;DHT22;127;48.770;9.212;2022-09-02T08:36:58;27.80;99.90
285;DHT22;127;48.770;9.212;2022-09-02T08:39:27;29.10;99.90
285;DHT22;127;48.770;9.212;2022-09-02T08:42:02;29.00;99.90
285;DHT22;127;48.770;9.212;2022-09-02T08:44:36;29.10;99.90
285;DHT22;127;48.770;9.212;2022-09-02T08:47:10;29.00;99.90
285;DHT22;127;48.770;9.212;2022-09-02T08:49:44;29.90;99.90
285;DHT22;127;48.770;9.212;2022-09-02T08:52:24;29.90;99.90
285;DHT22;127;48.770;9.212;2022-09-02T08:54:56;29.30;99.90
285;DHT22;127;48.770;9.212;2022-09-02T08:57:25;29.80;99.90
285;DHT22;127;48.770;9.212;2022-09-02T08:59:57;30.20;99.90
285;DHT22;127;48.770;9.212;2022-09-02T09:02:34;30.00;99.90
285;DHT22;127;48.770;9.212;2022-09-02T09:05:25;30.60;99.90
285;DHT22;127;48.770;9.212;2022-09-02T09:08:11;29.30;99.90
285;DHT22;127;48.770;9.212;2022-09-02T09:10:49;29.60;99.90
285;DHT22;127;48.770;9.212;2022-09-02T09:13:45;29.50;99.90
285;DHT22;127;48.770;9.212;2022-09-02T09:16:34;28.60;99.90
285;DHT22;127;48.770;9.212;2022-09-02T09:19:10;29.70;99.90
285;DHT22;127;48.770;9.212;2022-09-02T09:21:40;30.40;99.90
285;DHT22;127;48.770;9.212;2022-09-02T09:24:20;30.60;99.90
285;DHT22;127;48.770;9.212;2022-09-02T09:26:50;30.70;99.90
285;DHT22;127;48.770;9.212;2022-09-02T09:29:20;32.10;99.90
285;DHT22;127;48.770;9.212;2022-09-02T09:31:53;31.60;99.90
285;DHT22;127;48.770;9.212;2022-09-02T09:34:23;32.70;99.90
285;DHT22;127;48.770;9.212;2022-09-02T09:36:53;33.60;99.90
285;DHT22;127;48.770;9.212;2022-09-02T09:39:27;33.10;99.90
285;DHT22;127;48.770;9.212;2022-09-02T09:41:58;33.40;99.90
285;DHT22;127;48.770;9.212;2022-09-02T09:44:38;32.30;99.90
285;DHT22;127;48.770;9.212;2022-09-02T09:47:14;32.40;99.90
285;DHT22;127;48.770;9.212;2022-09-02T09:49:45;31.50;99.90
285;DHT22;127;48.770;9.212;2022-09-02T09:52:25;31.10;99.90
285;DHT22;127;48.770;9.212;2022-09-02T09:55:14;32.20;99.90
285;DHT22;127;48.770;9.212;2022-09-02T09:57:46;32.90;99.90
285;DHT22;127;48.770;9.212;2022-09-02T10:03:27;33.10;99.90
285;DHT22;127;48.770;9.212;2022-09-02T10:05:58;32.90;99.90
285;DHT22;127;48.770;9.212;2022-09-02T10:08:51;32.00;99.90
285;DHT22;127;48.770;9.212;2022-09-02T10:11:25;32.00;99.90
285;DHT22;127;48.770;9.212;2022-09-02T10:13:59;31.90;99.90
285;DHT22;127;48.770;9.212;2022-09-02T10:16:48;32.00;99.90
285;DHT22;127;48.770;9.212;2022-09-02T10:19:25;31.70;99.90
285;DHT22;127;48.770;9.212;2022-09-02T10:25:14;32.70;99.90
285;DHT22;127;48.770;9.212;2022-09-02T10:27:54;33.10;99.90
285;DHT22;127;48.770;9.212;2022-09-02T10:30:26;32.00;99.90
285;DHT22;127;48.770;9.212;2022-09-02T10:33:18;32.00;99.90
285;DHT22;127;48.770;9.212;2022-09-02T10:35:52;32.70;99.90
285;DHT22;127;48.770;9.212;2022-09-02T10:38:36;33.00;99.90
285;DHT22;127;48.770;9.212;2022-09-02T10:41:25;33.30;99.90
285;DHT22;127;48.770;9.212;2022-09-02T10:44:22;32.90;99.90
285;DHT22;127;48.770;9.212;2022-09-02T10:46:58;34.20;99.90
285;DHT22;127;48.770;9.212;2022-09-02T10:49:47;34.10;99.90
285;DHT22;127;48.770;9.212;2022-09-02T10:52:33;34.30;99.90
285;DHT22;127;48.770;9.212;2022-09-02T10:55:15;34.20;99.90
285;DHT22;127;48.770;9.212;2022-09-02T10:57:50;33.50;99.90
285;DHT22;127;48.770;9.212;2022-09-02T11:00:22;34.40;99.90
285;DHT22;127;48.770;9.212;2022-09-02T11:02:54;34.60;99.90
285;DHT22;127;48.770;9.212;2022-09-02T11:05:28;33.30;99.90
285;DHT22;127;48.770;9.212;2022-09-02T11:08:05;34.00;99.90
285;DHT22;127;48.770;9.212;2022-09-02T11:10:37;32.90;99.90
285;DHT22;127;48.770;9.212;2022-09-02T11:13:10;32.50;99.90
285;DHT22;127;48.770;9.212;2022-09-02T11:15:51;33.00;99.90
285;DHT22;127;48.770;9.212;2022-09-02T11:18:27;33.70;99.90
285;DHT22;127;48.770;9.212;2022-09-02T11:21:04;34.80;99.90
285;DHT22;127;48.770;9.212;2022-09-02T11:23:37;36.00;99.90
285;DHT22;127;48.770;9.212;2022-09-02T11:26:12;35.50;99.90
285;DHT22;127;48.770;9.212;2022-09-02T11:28:49;34.80;99.90
285;DHT22;127;48.770;9.212;2022-09-02T11:31:27;34.30;99.90
285;DHT22;127;48.770;9.212;2022-09-02T11:34:01;35.20;99.90
285;DHT22;127;48.770;9.212;2022-09-02T11:36:36;36.00;99.90
285;DHT22;127;48.770;9.212;2022-09-02T11:39:08;35.60;99.90
285;DHT22;127;48.770;9.212;2022-09-02T11:42:02;35.20;99.90
285;DHT22;127;48.770;9.212;2022-09-02T11:47:47;36.10;99.90
285;DHT22;127;48.770;9.212;2022-09-02T11:50:41;34.50;99.90
285;DHT22;127;48.770;9.212;2022-09-02T11:53:18;35.00;99.90
285;DHT22;127;48.770;9.212;2022-09-02T11:55:51;36.60;99.90
285;DHT22;127;48.770;9.212;2022-09-02T11:58:36;37.10;99.90
285;DHT22;127;48.770;9.212;2022-09-02T12:01:18;37.40;99.90
285;DHT22;127;48.770;9.212;2022-09-02T12:04:00;34.80;99.90
285;DHT22;127;48.770;9.212;2022-09-02T12:06:30;35.20;99.90
285;DHT22;127;48.770;9.212;2022-09-02T12:09:04;36.20;99.90
285;DHT22;127;48.770;9.212;2022-09-02T12:11:50;35.60;99.90
285;DHT22;127;48.770;9.212;2022-09-02T12:17:38;36.60;99.90
285;DHT22;127;48.770;9.212;2022-09-02T12:20:47;36.60;99.90
285;DHT22;127;48.770;9.212;2022-09-02T12:22:59;38.30;99.90
285;DHT22;127;48.770;9.212;2022-09-02T12:25:36;37.90;99.60
285;DHT22;127;48.770;9.212;2022-09-02T12:28:22;37.20;99.90
285;DHT22;127;48.770;9.212;2022-09-02T12:31:14;37.30;99.10
285;DHT22;127;48.770;9.212;2022-09-02T12:33:46;37.50;98.70
285;DHT22;127;48.770;9.212;2022-09-02T12:36:47;37.60;97.60
285;DHT22;127;48.770;9.212;2022-09-02T12:42:19;35.10;98.50
285;DHT22;127;48.770;9.212;2022-09-02T12:44:53;35.80;97.80
285;DHT22;127;48.770;9.212;2022-09-02T12:47:30;34.90;98.20
285;DHT22;127;48.770;9.212;2022-09-02T12:50:06;35.10;97.60
285;DHT22;127;48.770;9.212;2022-09-02T12:52:44;35.80;97.30
285;DHT22;127;48.770;9.212;2022-09-02T12:55:25;36.30;96.40
285;DHT22;127;48.770;9.212;2022-09-02T12:58:08;35.80;96.50
285;DHT22;127;48.770;9.212;2022-09-02T13:00:55;35.90;95.80
285;DHT22;127;48.770;9.212;2022-09-02T13:03:36;36.60;95.40
285;DHT22;127;48.770;9.212;2022-09-02T13:06:12;37.70;93.10
285;DHT22;127;48.770;9.212;2022-09-02T13:09:16;36.40;94.50
285;DHT22;127;48.770;9.212;2022-09-02T13:15:21;36.50;93.10
285;DHT22;127;48.770;9.212;2022-09-02T13:21:18;35.50;93.10
285;DHT22;127;48.770;9.212;2022-09-02T13:24:16;36.20;92.40
285;DHT22;127;48.770;9.212;2022-09-02T13:26:58;37.20;90.70
285;DHT22;127;48.770;9.212;2022-09-02T13:32:26;37.50;89.60
285;DHT22;127;48.770;9.212;2022-09-02T13:34:58;36.80;90.50
285;DHT22;127;48.770;9.212;2022-09-02T13:37:33;36.10;90.60
285;DHT22;127;48.770;9.212;2022-09-02T13:40:16;35.90;90.90
285;DHT22;127;48.770;9.212;2022-09-02T13:42:49;36.10;89.60
285;DHT22;127;48.770;9.212;2022-09-02T13:45:19;36.60;91.50
285;DHT22;127;48.770;9.212;2022-09-02T13:47:50;36.70;86.70
285;DHT22;127;48.770;9.212;2022-09-02T13:50:21;36.00;88.70
285;DHT22;127;48.770;9.212;2022-09-02T13:52:53;36.10;87.20
285;DHT22;127;48.770;9.212;2022-09-02T13:55:25;36.00;87.60
285;DHT22;127;48.770;9.212;2022-09-02T13:57:57;36.30;85.90
285;DHT22;127;48.770;9.212;2022-09-02T14:00:30;36.80;83.80
285;DHT22;127;48.770;9.212;2022-09-02T14:03:02;37.40;82.30
285;DHT22;127;48.770;9.212;2022-09-02T14:05:33;36.90;87.50
285;DHT22;127;48.770;9.212;2022-09-02T14:08:05;34.50;88.00
285;DHT22;127;48.770;9.212;2022-09-02T14:10:38;33.60;90.20
285;DHT22;127;48.770;9.212;2022-09-02T14:13:09;33.70;89.00
285;DHT22;127;48.770;9.212;2022-09-02T14:15:38;33.90;89.50
285;DHT22;127;48.770;9.212;2022-09-02T14:18:12;35.10;86.50
285;DHT22;127;48.770;9.212;2022-09-02T14:20:55;35.70;83.80
285;DHT22;127;48.770;9.212;2022-09-02T14:23:26;34.90;85.70
285;DHT22;127;48.770;9.212;2022-09-02T14:25:59;35.10;85.80
285;DHT22;127;48.770;9.212;2022-09-02T14:28:30;35.00;85.30
285;DHT22;127;48.770;9.212;2022-09-02T14:31:02;33.60;89.20
285;DHT22;127;48.770;9.212;2022-09-02T14:33:39;34.90;85.00
285;DHT22;127;48.770;9.212;2022-09-02T14:36:12;35.30;84.60
285;DHT22;127;48.770;9.212;2022-09-02T14:38:52;34.00;87.90
285;DHT22;127;48.770;9.212;2022-09-02T14:41:25;34.20;86.60
285;DHT22;127;48.770;9.212;2022-09-02T14:43:57;34.80;84.90
285;DHT22;127;48.770;9.212;2022-09-02T14:46:28;34.70;85.10
285;DHT22;127;48.770;9.212;2022-09-02T14:49:00;34.80;84.50
285;DHT22;127;48.770;9.212;2022-09-02T14:51:44;35.60;81.40
285;DHT22;127;48.770;9.212;2022-09-02T15:00:38;34.10;84.60
285;DHT22;127;48.770;9.212;2022-09-02T15:03:06;33.90;84.80
285;DHT22;127;48.770;9.212;2022-09-02T15:05:36;34.50;83.90
285;DHT22;127;48.770;9.212;2022-09-02T15:08:06;33.00;87.40
285;DHT22;127;48.770;9.212;2022-09-02T15:10:35;33.30;85.90
285;DHT22;127;48.770;9.212;2022-09-02T15:13:06;33.80;85.10
285;DHT22;127;48.770;9.212;2022-09-02T15:15:39;33.70;85.20
285;DHT22;127;48.770;9.212;2022-09-02T15:18:08;33.00;88.80
285;DHT22;127;48.770;9.212;2022-09-02T15:20:37;33.90;84.90
285;DHT22;127;48.770;9.212;2022-09-02T15:23:05;34.40;83.30
285;DHT22;127;48.770;9.212;2022-09-02T15:25:34;32.60;88.10
285;DHT22;127;48.770;9.212;2022-09-02T15:28:03;33.00;87.40
285;DHT22;127;48.770;9.212;2022-09-02T15:30:33;32.30;89.60
285;DHT22;127;48.770;9.212;2022-09-02T15:33:08;32.90;87.60
285;DHT22;127;48.770;9.212;2022-09-02T15:35:37;33.40;87.10
285;DHT22;127;48.770;9.212;2022-09-02T15:38:05;33.70;85.40
285;DHT22;127;48.770;9.212;2022-09-02T15:40:34;32.90;87.20
285;DHT22;127;48.770;9.212;2022-09-02T15:43:03;33.40;86.00
285;DHT22;127;48.770;9.212;2022-09-02T15:45:32;33.90;84.10
285;DHT22;127;48.770;9.212;2022-09-02T15:48:04;33.70;83.80
285;DHT22;127;48.770;9.212;2022-09-02T15:50:32;31.90;90.40
285;DHT22;127;48.770;9.212;2022-09-02T15:53:01;32.10;89.60
285;DHT22;127;48.770;9.212;2022-09-02T15:55:31;31.20;90.70
285;DHT22;127;48.770;9.212;2022-09-02T15:58:00;31.10;92.10
285;DHT22;127;48.770;9.212;2022-09-02T16:00:28;30.30;92.60
285;DHT22;127;48.770;9.212;2022-09-02T16:02:59;30.10;93.40
285;DHT22;127;48.770;9.212;2022-09-02T16:05:31;29.80;93.90
285;DHT22;127;48.770;9.212;2022-09-02T16:08:00;28.90;95.80
285;DHT22;127;48.770;9.212;2022-09-02T16:10:31;28.60;96.10
285;DHT22;127;48.770;9.212;2022-09-02T16:12:59;28.30;97.00
285;DHT22;127;48.770;9.212;2022-09-02T16:15:28;27.90;99.00
285;DHT22;127;48.770;9.212;2022-09-02T16:17:57;27.50;99.20
285;DHT22;127;48.770;9.212;2022-09-02T16:20:26;27.20;99.80
285;DHT22;127;48.770;9.212;2022-09-02T16:22:57;26.80;99.90
285;DHT22;127;48.770;9.212;2022-09-02T16:25:26;26.60;99.90
285;DHT22;127;48.770;9.212;2022-09-02T16:27:54;26.60;99.90
285;DHT22;127;48.770;9.212;2022-09-02T16:30:23;26.70;99.90
285;DHT22;127;48.770;9.212;2022-09-02T16:32:54;26.10;99.90
285;DHT22;127;48.770;9.212;2022-09-02T16:35:23;26.10;99.90
285;DHT22;127;48.770;9.212;2022-09-02T16:37:51;25.60;99.90
285;DHT22;127;48.770;9.212;2022-09-02T16:40:24;25.20;99.90
285;DHT22;127;48.770;9.212;2022-09-02T16:42:53;24.80;99.90
285;DHT22;127;48.770;9.212;2022-09-02T16:45:22;24.80;99.90
285;DHT22;127;48.770;9.212;2022-09-02T16:47:51;24.50;99.90
285;DHT22;127;48.770;9.212;2022-09-02T16:50:19;24.20;99.90
285;DHT22;127;48.770;9.212;2022-09-02T16:52:48;24.30;99.90
285;DHT22;127;48.770;9.212;2022-09-02T16:55:17;24.30;99.90
285;DHT22;127;48.770;9.212;2022-09-02T16:57:49;24.40;99.90
285;DHT22;127;48.770;9.212;2022-09-02T17:00:17;24.50;99.90
285;DHT22;127;48.770;9.212;2022-09-02T17:02:48;24.70;99.90
285;DHT22;127;48.770;9.212;2022-09-02T17:05:16;25.00;99.90
285;DHT22;127;48.770;9.212;2022-09-02T17:07:45;25.10;99.90
285;DHT22;127;48.770;9.212;2022-09-02T17:10:14;25.30;99.90
285;DHT22;127;48.770;9.212;2022-09-02T17:12:43;24.80;99.90
285;DHT22;127;48.770;9.212;2022-09-02T17:15:14;24.30;99.90
285;DHT22;127;48.770;9.212;2022-09-02T17:17:43;24.10;99.90
285;DHT22;127;48.770;9.212;2022-09-02T17:20:12;23.70;99.90
285;DHT22;127;48.770;9.212;2022-09-02T17:22:40;23.40;99.90
285;DHT22;127;48.770;9.212;2022-09-02T17:25:10;23.30;99.90
285;DHT22;127;48.770;9.212;2022-09-02T17:27:39;23.00;99.90
285;DHT22;127;48.770;9.212;2022-09-02T17:30:09;22.80;99.90
285;DHT22;127;48.770;9.212;2022-09-02T17:32:41;22.50;99.90
285;DHT22;127;48.770;9.212;2022-09-02T17:35:10;22.30;99.90
285;DHT22;127;48.770;9.212;2022-09-02T17:37:39;22.10;99.90
285;DHT22;127;48.770;9.212;2022-09-02T17:40:08;21.80;99.90